This is the latest recevied weather packets stored in our database for station/object AD8BW. If no packets are shown the sender has not sent any weather packets the latest 10 day(s).
| Time | Temp. | Humidity | Pressure | Rain* | Wind** | Luminosity | Snow |
|---|---|---|---|---|---|---|---|
| 1777812129 | 7.78° C | 57% | 1011.7 hPa | 0 mm | - | 144 W/m² | - |
| 1777811532 | 7.22° C | 57% | 1011.8 hPa | 0 mm | - | 77 W/m² | - |
| 1777810925 | 7.22° C | 58% | 1011.8 hPa | 0 mm | - | 67 W/m² | - |
| 1777810324 | 6.67° C | 59% | 1011.8 hPa | 0 mm | - | 69 W/m² | - |
| 1777809726 | 6.11° C | 60% | 1011.9 hPa | 0 mm | - | 67 W/m² | - |
| 1777809126 | 5.56° C | 62% | 1011.9 hPa | 0 mm | - | 58 W/m² | - |
| 1777808523 | 5° C | 63% | 1011.8 hPa | 0 mm | - | 84 W/m² | - |
| 1777807922 | 4.44° C | 63% | 1011.9 hPa | 0 mm | - | 58 W/m² | - |
| 1777807326 | 4.44° C | 64% | 1011.9 hPa | 0 mm | - | 42 W/m² | - |
| 1777806723 | 3.89° C | 65% | 1011.9 hPa | 0 mm | - | 30 W/m² | - |
| 1777806122 | 3.33° C | 66% | 1011.9 hPa | 0 mm | - | 25 W/m² | - |
| 1777805518 | 3.33° C | 66% | 1011.9 hPa | 0 mm | - | 9 W/m² | - |
| 1777804920 | 2.78° C | 67% | 1011.9 hPa | 0 mm | - | 7 W/m² | - |
| 1777804321 | 2.78° C | 67% | 1012.1 hPa | 0 mm | - | 0 W/m² | - |
| 1777803717 | 1.67° C | 70% | 1012.1 hPa | 0 mm | - | 0 W/m² | - |
| 1777803117 | 1.11° C | 76% | 1012.2 hPa | 0 mm | - | 0 W/m² | - |
| 1777802515 | 0.56° C | 79% | 1012.3 hPa | 0 mm | - | 0 W/m² | - |
| 1777801919 | 0.56° C | 79% | 1012.5 hPa | 0 mm | - | 0 W/m² | - |
| 1777801316 | 0° C | 79% | 1012.5 hPa | 0 mm | - | 0 W/m² | - |
| 1777800727 | 0.56° C | 79% | 1012.7 hPa | 0 mm | - | 0 W/m² | - |
| 1777800116 | 0.56° C | 78% | 1012.7 hPa | 0 mm | - | 0 W/m² | - |
| 1777799513 | 0° C | 80% | 1012.8 hPa | 0 mm | - | 0 W/m² | - |
| 1777798916 | 0.56° C | 79% | 1012.9 hPa | 0 mm | - | 0 W/m² | - |
| 1777798314 | 0.56° C | 78% | 1012.9 hPa | 0 mm | - | 0 W/m² | - |
| 1777797716 | 0.56° C | 79% | 1013 hPa | 0 mm | - | 0 W/m² | - |
* Rain latest hour (hover to see other rain measurements)
** Current wind speed in m/s (hover to see current wind gust speed)